Time;durP1;ratioP1;P1;durP2;ratioP2;P2;SDS_P1;SDS_P2;PMS_P1;PMS_P2;Temp;Humidity;BMP_temperature;BMP_pressure;BME280_temperature;BME280_humidity;BME280_pressure;Samples;Min_cycle;Max_cycle;Signal;HPM_P1;HPM_P2
2022/06/12 00:00:08;;;;;;;3.55;3.15;;;25.30;57.90;26.60;101413.00;;;;5089393;28;20173;-43
2022/06/12 00:02:33;;;;;;;4.32;3.30;;;25.20;58.00;26.60;101414.00;;;;5088990;28;20732;-42
2022/06/12 00:04:59;;;;;;;3.58;3.08;;;25.20;57.90;26.60;101414.00;;;;5089534;28;20222;-42
2022/06/12 00:07:25;;;;;;;4.53;3.15;;;25.20;57.90;26.60;101415.00;;;;5091701;28;20169;-42
2022/06/12 00:09:51;;;;;;;3.40;3.10;;;25.20;57.90;26.50;101415.00;;;;5100121;28;20641;-42
2022/06/12 00:12:17;;;;;;;7.20;3.30;;;25.20;57.90;26.50;101361.00;;;;5098691;28;20700;-42
2022/06/12 00:14:43;;;;;;;4.28;3.17;;;25.20;58.00;26.50;101432.00;;;;5089732;28;20279;-43
2022/06/12 00:17:09;;;;;;;4.47;3.13;;;25.20;58.10;26.50;101432.00;;;;5089500;28;20256;-43
2022/06/12 00:19:34;;;;;;;3.67;3.10;;;25.20;57.80;26.50;101433.00;;;;5089103;28;20265;-43
2022/06/12 00:22:00;;;;;;;4.68;2.88;;;25.10;57.80;26.50;101433.00;;;;5089249;28;20217;-42
2022/06/12 00:24:26;;;;;;;5.38;3.25;;;25.10;57.70;26.40;101430.00;;;;5089193;28;20213;-42
2022/06/12 00:26:54;;;;;;;4.82;3.25;;;25.10;57.80;26.40;101438.00;;;;5089157;28;20294;-42
2022/06/12 00:29:28;;;;;;;4.07;3.10;;;25.00;57.60;26.40;101426.00;;;;5088995;28;20334;-42
2022/06/12 00:32:01;;;;;;;3.85;2.97;;;25.10;57.50;26.30;101426.00;;;;5089289;28;20189;-42
2022/06/12 00:34:31;;;;;;;4.88;3.17;;;25.00;57.50;26.30;101427.00;;;;5089108;28;20156;-44
2022/06/12 00:36:57;;;;;;;7.13;3.42;;;25.00;57.60;26.30;101432.00;;;;5088956;28;20637;-42
2022/06/12 00:39:23;;;;;;;5.38;3.42;;;25.00;57.50;26.30;101433.00;;;;5087648;28;20180;-42
2022/06/12 00:41:51;;;;;;;4.95;3.20;;;25.00;57.20;26.30;101422.00;;;;5088584;28;20629;-42
2022/06/12 00:44:19;;;;;;;3.85;3.15;;;25.00;57.30;26.20;101419.00;;;;5088727;28;20197;-43
2022/06/12 00:46:52;;;;;;;3.60;3.10;;;24.90;57.20;26.20;101428.00;;;;5088777;28;20247;-42
2022/06/12 00:49:50;;;;;;;4.88;3.20;;;24.90;57.20;26.20;101434.00;;;;5089088;28;20200;-41
2022/06/12 00:52:29;;;;;;;5.28;3.30;;;24.90;57.20;26.20;101438.00;;;;5089051;28;20188;-43
2022/06/12 00:54:58;;;;;;;4.57;3.20;;;24.90;57.50;26.20;101428.00;;;;5089363;28;20517;-43
2022/06/12 00:57:24;;;;;;;5.07;3.50;;;24.90;57.00;26.10;101429.00;;;;5087916;28;20527;-43
2022/06/12 01:00:03;;;;;;;5.65;3.28;;;24.90;57.20;26.10;101434.00;;;;5088999;28;20176;-42
2022/06/12 01:02:31;;;;;;;4.15;3.10;;;24.90;57.30;26.10;101424.00;;;;5087791;28;20192;-42
2022/06/12 01:07:47;;;;;;;4.32;3.03;;;24.80;57.30;26.00;101374.00;;;;5087481;28;20183;-42
2022/06/12 01:10:14;;;;;;;5.38;3.28;;;24.80;56.50;26.00;101431.00;;;;5090032;28;20291;-42
2022/06/12 01:12:44;;;;;;;7.00;3.13;;;24.80;56.80;26.00;101424.00;;;;5095653;28;20226;-44
2022/06/12 01:15:27;;;;;;;5.15;3.00;;;24.80;57.00;26.00;101428.00;;;;5094222;28;20165;-43
2022/06/12 01:17:53;;;;;;;4.30;3.25;;;24.90;56.90;26.00;101445.00;;;;5091232;28;20200;-42
2022/06/12 01:20:24;;;;;;;5.10;3.40;;;24.90;56.80;26.00;101437.00;;;;5091392;28;20193;-41
2022/06/12 01:23:11;;;;;;;6.18;3.42;;;24.90;56.80;26.00;101437.00;;;;5092072;28;20208;-43
2022/06/12 01:25:40;;;;;;;3.55;3.22;;;24.80;56.20;25.90;101448.00;;;;5094133;28;20166;-45
2022/06/12 01:28:52;;;;;;;4.32;2.92;;;24.70;56.70;25.90;101445.00;;;;5093369;28;20744;-44
2022/06/12 01:31:45;;;;;;;6.15;3.30;;;24.70;56.90;25.90;101444.00;;;;5091940;28;20199;-41
2022/06/12 01:34:34;;;;;;;4.90;3.27;;;24.70;56.90;25.80;101440.00;;;;5092437;28;20184;-42
2022/06/12 01:37:24;;;;;;;5.97;3.20;;;24.70;57.00;25.80;101445.00;;;;5092380;28;20469;-43
2022/06/12 01:40:01;;;;;;;4.47;3.00;;;24.70;56.80;25.80;101448.00;;;;5091060;28;20153;-44
2022/06/12 01:43:27;;;;;;;6.00;3.13;;;24.70;56.90;25.80;101441.00;;;;5091964;28;20861;-44
2022/06/12 01:46:21;;;;;;;5.20;3.10;;;24.70;56.60;25.70;101435.00;;;;5067318;28;20235;-43
2022/06/12 01:49:31;;;;;;;5.30;3.20;;;24.60;56.70;25.70;101438.00;;;;5090611;28;20675;-42
2022/06/12 01:52:29;;;;;;;6.07;3.25;;;24.60;56.40;25.70;101427.00;;;;5091250;28;20200;-42
2022/06/12 01:55:08;;;;;;;5.13;3.13;;;24.60;56.50;25.60;101432.00;;;;5083848;28;20185;-43
2022/06/12 01:57:52;;;;;;;4.38;2.95;;;24.60;56.60;25.70;101420.00;;;;5090353;28;20153;-42
2022/06/12 02:00:21;;;;;;;3.93;2.90;;;24.60;56.40;25.60;101425.00;;;;5091746;28;20582;-42
2022/06/12 02:03:11;;;;;;;5.57;3.57;;;24.60;56.40;25.60;101418.00;;;;5090093;28;20281;-42
2022/06/12 02:05:58;;;;;;;4.20;3.38;;;24.60;56.00;25.60;101435.00;;;;5090372;28;20248;-42
2022/06/12 02:08:54;;;;;;;4.32;3.03;;;24.50;56.10;25.60;101424.00;;;;5089961;28;20168;-42
2022/06/12 02:14:20;;;;;;;4.03;3.27;;;24.50;56.30;25.50;101417.00;;;;5090734;28;20760;-42
2022/06/12 02:16:49;;;;;;;4.90;3.37;;;24.40;56.10;25.50;101415.00;;;;5089915;28;20176;-43
2022/06/12 02:19:22;;;;;;;5.80;3.30;;;24.40;56.10;25.50;101411.00;;;;5089645;28;20260;-42
2022/06/12 02:21:56;;;;;;;5.10;3.40;;;24.50;56.10;25.50;101416.00;;;;5089745;28;20498;-43
2022/06/12 02:24:42;;;;;;;5.70;3.23;;;24.50;56.00;25.40;101423.00;;;;5089915;28;20676;-42
2022/06/12 02:27:35;;;;;;;6.10;3.20;;;24.50;55.90;25.40;101407.00;;;;5074997;28;20214;-43
2022/06/12 02:30:10;;;;;;;4.53;3.20;;;24.40;55.90;25.40;101404.00;;;;5090035;28;20165;-44
2022/06/12 02:32:38;;;;;;;3.93;3.07;;;24.40;56.00;25.40;101416.00;;;;5089672;28;20199;-42
2022/06/12 02:35:33;;;;;;;3.90;3.10;;;24.40;56.00;25.40;101409.00;;;;5089514;28;20229;-44
2022/06/12 02:38:06;;;;;;;5.00;3.10;;;24.40;55.70;25.30;101417.00;;;;5089346;28;20157;-42
2022/06/12 02:40:38;;;;;;;5.20;3.00;;;24.40;55.60;25.30;101408.00;;;;5089900;28;20574;-43
2022/06/12 02:43:08;;;;;;;4.03;2.87;;;24.40;55.60;25.30;101405.00;;;;5089154;28;20195;-43
2022/06/12 02:45:45;;;;;;;5.83;3.10;;;24.40;55.60;25.30;101413.00;;;;5089855;28;20169;-44
2022/06/12 02:48:11;;;;;;;6.03;3.20;;;24.40;55.30;25.20;101409.00;;;;5089499;28;20519;-43
2022/06/12 02:50:47;;;;;;;4.20;3.13;;;24.30;55.40;25.20;101410.00;;;;5090664;28;20161;-43
2022/06/12 02:53:29;;;;;;;5.20;3.30;;;24.30;55.50;25.20;101418.00;;;;5089210;28;20197;-43
2022/06/12 02:56:12;;;;;;;4.30;3.13;;;24.20;55.50;25.20;101417.00;;;;5089166;28;20651;-43
2022/06/12 02:59:07;;;;;;;5.47;3.27;;;24.20;55.50;25.10;101405.00;;;;5088922;28;20619;-42
2022/06/12 03:01:40;;;;;;;5.77;3.20;;;24.20;55.40;25.10;101412.00;;;;5086636;28;20172;-42
2022/06/12 03:04:12;;;;;;;4.20;3.10;;;24.20;55.20;25.10;101411.00;;;;5068632;28;20189;-42
2022/06/12 03:06:38;;;;;;;5.90;3.23;;;24.20;55.10;25.10;101404.00;;;;5052604;28;20537;-43
2022/06/12 03:09:05;;;;;;;4.20;3.10;;;24.20;55.10;25.10;101407.00;;;;5072424;28;20206;-43
2022/06/12 03:11:37;;;;;;;5.40;3.27;;;24.10;55.00;25.00;101415.00;;;;5071669;28;20165;-42
2022/06/12 03:14:10;;;;;;;4.03;3.10;;;24.20;55.10;25.00;101412.00;;;;5088710;28;20162;-44
2022/06/12 03:16:37;;;;;;;4.67;3.30;;;24.10;55.00;25.00;101412.00;;;;5068049;28;20154;-42
2022/06/12 03:19:09;;;;;;;3.57;2.97;;;24.10;54.90;25.00;101408.00;;;;5069665;28;20170;-43
2022/06/12 03:21:47;;;;;;;6.03;3.30;;;24.10;55.50;25.00;101403.00;;;;5068418;28;20170;-43
2022/06/12 03:24:46;;;;;;;4.47;3.10;;;24.10;55.50;25.00;101406.00;;;;5069336;28;20208;-41
2022/06/12 03:27:48;;;;;;;3.47;3.07;;;24.10;55.50;25.00;101411.00;;;;5069236;28;20522;-42
2022/06/12 03:30:30;;;;;;;4.13;2.87;;;24.10;55.50;24.90;101418.00;;;;5068935;28;20181;-44
2022/06/12 03:33:33;;;;;;;5.07;3.10;;;24.10;55.00;24.90;101413.00;;;;5052029;28;20195;-42
2022/06/12 03:36:17;;;;;;;4.17;2.80;;;24.00;55.00;24.80;101411.00;;;;5055453;28;20169;-41
2022/06/12 03:38:52;;;;;;;5.80;5.20;;;24.00;55.20;24.80;101419.00;;;;5053671;28;20527;-43
2022/06/12 03:41:58;;;;;;;6.53;3.97;;;23.90;55.10;24.80;101420.00;;;;5068008;28;20164;-43
2022/06/12 03:44:32;;;;;;;5.33;3.10;;;23.90;54.80;24.80;101431.00;;;;5054456;28;20483;-43
2022/06/12 03:47:17;;;;;;;4.93;3.43;;;23.80;54.80;24.70;101421.00;;;;5058280;28;20174;-42
2022/06/12 03:49:52;;;;;;;5.47;3.70;;;23.80;55.00;24.70;101429.00;;;;5060745;28;20177;-43
2022/06/12 03:52:32;;;;;;;5.87;3.60;;;23.80;55.00;24.70;101429.00;;;;5074519;28;20223;-43
2022/06/12 03:58:20;;;;;;;6.03;3.23;;;23.80;54.90;24.60;101424.00;;;;5056644;28;20589;-42
2022/06/12 04:00:47;;;;;;;4.30;3.10;;;23.80;54.70;24.60;101426.00;;;;5051873;28;20180;-43
2022/06/12 04:03:23;;;;;;;5.37;3.30;;;23.70;54.50;24.60;101420.00;;;;5050596;28;20227;-43
2022/06/12 04:05:53;;;;;;;5.70;3.50;;;23.60;54.80;24.50;101439.00;;;;5051649;28;20153;-43
2022/06/12 04:08:24;;;;;;;5.57;3.20;;;23.60;54.70;24.50;101421.00;;;;5068406;28;20546;-43
2022/06/12 04:10:50;;;;;;;7.17;2.90;;;23.60;54.70;24.50;101434.00;;;;5051193;28;20173;-43
2022/06/12 04:13:16;;;;;;;4.93;3.07;;;23.60;55.00;24.50;101435.00;;;;5049360;28;20734;-43
2022/06/12 04:16:04;;;;;;;4.53;3.20;;;23.60;55.00;24.50;101450.00;;;;5067392;28;20181;-43
2022/06/12 04:18:30;;;;;;;3.87;3.00;;;23.60;54.70;24.50;101438.00;;;;5065902;28;20748;-43
2022/06/12 04:21:00;;;;;;;7.83;3.47;;;23.60;55.00;24.40;101445.00;;;;5049276;28;20629;-45
2022/06/12 04:23:47;;;;;;;3.77;2.90;;;23.60;55.30;24.40;101451.00;;;;5066953;28;20207;-43
2022/06/12 04:26:40;;;;;;;5.07;2.70;;;23.60;55.00;24.40;101452.00;;;;5065876;28;20161;-42
2022/06/12 04:29:12;;;;;;;3.03;2.73;;;23.50;54.90;24.40;101444.00;;;;5067371;28;20165;-42
2022/06/12 04:31:43;;;;;;;4.10;3.00;;;23.50;55.00;24.30;101450.00;;;;5068197;28;20255;-43
2022/06/12 04:34:24;;;;;;;5.17;2.97;;;23.50;55.20;24.30;101447.00;;;;5068196;28;20553;-43
2022/06/12 04:36:54;;;;;;;5.43;2.90;;;23.50;55.30;24.30;101438.00;;;;5068606;28;20179;-42
2022/06/12 04:39:23;;;;;;;3.50;2.70;;;23.40;55.20;24.30;101446.00;;;;5068493;28;20202;-43
2022/06/12 04:41:49;;;;;;;4.30;3.00;;;23.50;55.30;24.30;101448.00;;;;5068508;28;20184;-43
2022/06/12 04:44:15;;;;;;;4.20;3.20;;;23.50;55.30;24.30;101451.00;;;;5069019;28;20576;-42
2022/06/12 04:46:42;;;;;;;4.70;3.30;;;23.50;55.30;24.30;101453.00;;;;5072590;28;20173;-43
2022/06/12 04:49:10;;;;;;;7.93;2.90;;;23.50;55.30;24.20;101448.00;;;;5072226;28;20158;-42
2022/06/12 04:51:36;;;;;;;3.80;2.80;;;23.40;55.20;24.20;101458.00;;;;5054949;28;20216;-43
2022/06/12 04:54:02;;;;;;;4.00;2.70;;;23.40;55.40;24.20;101453.00;;;;5072056;28;20193;-42
2022/06/12 04:56:30;;;;;;;5.93;2.90;;;23.40;55.40;24.20;101460.00;;;;5072332;28;20224;-43
2022/06/12 04:58:55;;;;;;;4.87;3.80;;;23.40;55.50;24.20;101448.00;;;;5072445;28;20173;-41
2022/06/12 05:01:22;;;;;;;8.87;4.30;;;23.40;56.20;24.20;101455.00;;;;5072066;28;20181;-43
2022/06/12 05:03:47;;;;;;;5.80;3.63;;;23.40;55.60;24.10;101453.00;;;;5071771;28;20354;-42
2022/06/12 05:06:13;;;;;;;5.60;3.47;;;23.40;55.80;24.10;101447.00;;;;5072197;28;20248;-42
2022/06/12 05:08:39;;;;;;;6.40;3.47;;;23.40;55.80;24.10;101448.00;;;;5071898;28;20189;-42
2022/06/12 05:11:05;;;;;;;5.03;3.40;;;23.40;55.80;24.10;101453.00;;;;5071952;28;20223;-43
2022/06/12 05:13:31;;;;;;;5.57;3.40;;;23.40;55.80;24.10;101451.00;;;;5071014;28;20189;-42
2022/06/12 05:15:56;;;;;;;5.70;3.10;;;23.40;55.80;24.00;101446.00;;;;5070009;28;20162;-42
2022/06/12 05:18:22;;;;;;;4.43;2.80;;;23.30;55.80;24.00;101444.00;;;;5069865;28;20252;-42
2022/06/12 05:20:48;;;;;;;4.00;3.07;;;23.30;55.80;24.00;101442.00;;;;5071803;28;20173;-43
2022/06/12 05:23:14;;;;;;;3.77;2.93;;;23.30;55.80;24.00;101442.00;;;;5071360;28;20240;-42
2022/06/12 05:25:41;;;;;;;4.33;3.10;;;23.30;55.90;23.90;101453.00;;;;5071462;28;20213;-42
2022/06/12 05:28:07;;;;;;;6.03;3.23;;;23.30;55.90;23.90;101450.00;;;;5053723;28;20170;-42
2022/06/12 05:30:33;;;;;;;4.00;3.03;;;23.30;56.00;23.90;101455.00;;;;5071548;28;20162;-42
2022/06/12 05:33:00;;;;;;;4.13;3.30;;;23.20;56.00;23.90;101450.00;;;;5071148;28;20225;-43
2022/06/12 05:35:27;;;;;;;4.40;3.30;;;23.20;56.20;23.90;101445.00;;;;5070922;28;20178;-43
2022/06/12 05:37:52;;;;;;;6.20;3.73;;;23.20;56.60;23.90;101441.00;;;;5070901;28;20182;-43
2022/06/12 05:40:25;;;;;;;4.47;3.30;;;23.20;56.50;24.00;101445.00;;;;5070372;28;20172;-44
2022/06/12 05:42:51;;;;;;;3.80;3.10;;;23.20;56.40;23.90;101443.00;;;;5071440;28;20201;-43
2022/06/12 05:45:21;;;;;;;4.03;3.03;;;23.20;56.30;23.90;101446.00;;;;5071119;28;20174;-42
2022/06/12 05:47:53;;;;;;;5.97;3.30;;;23.20;56.60;23.90;101443.00;;;;5071564;28;20547;-42
2022/06/12 05:50:20;;;;;;;5.63;3.13;;;23.10;56.40;23.90;101414.00;;;;5071375;28;20173;-42
2022/06/12 05:52:46;;;;;;;4.13;2.93;;;23.10;56.50;23.80;101447.00;;;;5070908;28;20201;-42
2022/06/12 05:55:12;;;;;;;5.67;3.47;;;23.10;56.60;23.90;101446.00;;;;5069304;28;20223;-43
2022/06/12 05:57:37;;;;;;;6.60;3.73;;;23.10;56.90;23.80;101448.00;;;;5071054;28;20754;-43
2022/06/12 06:00:06;;;;;;;5.03;3.30;;;23.10;56.90;23.80;101453.00;;;;5071368;28;20186;-42
2022/06/12 06:02:34;;;;;;;7.43;4.17;;;23.10;56.90;23.80;101457.00;;;;5069801;28;20224;-43
2022/06/12 06:05:01;;;;;;;7.90;4.50;;;23.10;57.00;23.80;101453.00;;;;5070581;28;20214;-42
2022/06/12 06:07:26;;;;;;;10.50;5.33;;;23.10;56.80;23.80;101456.00;;;;5070803;28;20219;-43
2022/06/12 06:09:52;;;;;;;7.33;4.80;;;23.10;56.80;23.80;101466.00;;;;5071199;28;20535;-42
2022/06/12 06:12:18;;;;;;;7.70;4.40;;;23.10;56.40;23.80;101467.00;;;;5070711;28;20193;-42
2022/06/12 06:14:44;;;;;;;7.30;4.30;;;23.00;56.10;23.80;101462.00;;;;5070597;28;20703;-42
2022/06/12 06:17:10;;;;;;;8.83;4.70;;;23.00;55.90;23.80;101472.00;;;;5070720;28;20196;-43
2022/06/12 06:19:35;;;;;;;7.63;4.37;;;23.00;56.00;23.70;101463.00;;;;5070530;28;20174;-43
2022/06/12 06:22:01;;;;;;;8.37;4.03;;;22.90;55.90;23.70;101469.00;;;;5070553;28;20658;-42
2022/06/12 06:24:27;;;;;;;8.10;3.77;;;22.90;56.00;23.70;101466.00;;;;5070422;28;20209;-43
2022/06/12 06:26:53;;;;;;;10.20;5.53;;;22.90;56.30;23.70;101465.00;;;;5070493;28;20170;-42
2022/06/12 06:29:18;;;;;;;8.20;4.00;;;22.90;56.10;23.70;101455.00;;;;5070182;28;20170;-42
2022/06/12 06:31:44;;;;;;;8.13;3.83;;;22.90;56.10;23.70;101459.00;;;;5070326;28;20646;-42
2022/06/12 06:34:10;;;;;;;6.50;3.77;;;22.90;56.00;23.70;101463.00;;;;5077712;28;20154;-44
2022/06/12 06:36:36;;;;;;;7.40;4.10;;;22.80;55.80;23.60;101464.00;;;;5088509;28;20185;-42
2022/06/12 06:39:02;;;;;;;6.63;3.73;;;22.90;54.80;23.60;101469.00;;;;5087599;28;20177;-44
2022/06/12 06:41:28;;;;;;;8.33;4.10;;;22.80;55.30;23.60;101461.00;;;;5070480;28;20612;-42
2022/06/12 06:46:38;;;;;;;5.47;3.17;;;22.80;55.30;23.50;101471.00;;;;5070352;28;20198;-43
2022/06/12 06:49:04;;;;;;;7.80;3.37;;;22.80;55.80;23.50;101471.00;;;;5077295;28;20184;-42
2022/06/12 06:51:31;;;;;;;6.77;3.70;;;22.80;55.40;23.50;101462.00;;;;5077841;28;20170;-43
2022/06/12 06:53:57;;;;;;;6.27;3.30;;;22.80;55.30;23.50;101471.00;;;;5077779;28;20250;-43
2022/06/12 06:56:23;;;;;;;6.53;3.30;;;22.80;55.40;23.50;101473.00;;;;5069917;28;20285;-43
2022/06/12 06:58:49;;;;;;;7.03;3.33;;;22.80;55.50;23.50;101480.00;;;;5069785;28;20177;-43
2022/06/12 07:01:15;;;;;;;6.20;3.40;;;22.70;55.60;23.50;101468.00;;;;5069620;28;20189;-42
2022/06/12 07:03:41;;;;;;;5.60;3.67;;;22.70;55.90;23.50;101477.00;;;;5068223;28;20724;-42
2022/06/12 07:06:10;;;;;;;6.27;3.13;;;22.70;54.20;23.40;101475.00;;;;5069252;28;20178;-41
2022/06/12 07:08:35;;;;;;;6.30;3.30;;;22.70;54.60;23.40;101476.00;;;;5067946;28;20630;-42
2022/06/12 07:11:01;;;;;;;7.60;3.53;;;22.70;54.30;23.40;101469.00;;;;4867970;28;20181;-43
2022/06/12 07:13:27;;;;;;;6.67;3.30;;;22.60;53.40;23.40;101471.00;;;;5084622;28;20263;-42
2022/06/12 07:15:54;;;;;;;6.90;3.33;;;22.60;53.00;23.40;101475.00;;;;5089558;28;20218;-42
2022/06/12 07:18:20;;;;;;;7.13;3.30;;;22.60;52.50;23.30;101468.00;;;;5089556;28;20260;-42
2022/06/12 07:20:54;;;;;;;6.27;3.17;;;22.50;52.70;23.30;101482.00;;;;5089740;28;20177;-42
2022/06/12 07:23:22;;;;;;;5.73;2.83;;;22.60;53.40;23.30;101472.00;;;;5089204;28;20208;-41
2022/06/12 07:25:52;;;;;;;6.57;2.90;;;22.60;53.60;23.30;101482.00;;;;5089498;28;20173;-42
2022/06/12 07:28:18;;;;;;;5.93;3.13;;;22.60;53.50;23.30;101490.00;;;;5104362;28;20173;-42
2022/06/12 07:30:44;;;;;;;6.27;4.27;;;22.60;53.80;23.30;101481.00;;;;5089774;28;20176;-42
2022/06/12 07:33:10;;;;;;;5.50;3.03;;;22.50;54.40;23.30;101484.00;;;;5089900;28;20638;-43
2022/06/12 07:35:36;;;;;;;6.80;3.20;;;22.50;52.90;23.30;101486.00;;;;5089618;28;20206;-42
2022/06/12 07:38:02;;;;;;;6.17;2.93;;;22.50;51.90;23.20;101487.00;;;;5071754;28;20212;-42
2022/06/12 07:40:37;;;;;;;5.73;3.17;;;22.50;52.30;23.20;101490.00;;;;5089706;28;20199;-41
2022/06/12 07:43:03;;;;;;;6.47;3.17;;;22.50;52.30;23.20;101472.00;;;;5072135;28;20200;-42
2022/06/12 07:45:30;;;;;;;5.33;2.80;;;22.50;52.90;23.20;101480.00;;;;5089196;28;20226;-41
2022/06/12 07:47:56;;;;;;;6.97;3.50;;;22.50;53.60;23.20;101481.00;;;;5089062;28;20523;-42
2022/06/12 07:50:22;;;;;;;7.53;3.77;;;22.40;53.60;23.20;101476.00;;;;5087784;28;20660;-42
2022/06/12 07:52:48;;;;;;;6.43;3.33;;;22.40;53.90;23.10;101446.00;;;;5088266;28;20260;-41
2022/06/12 07:55:16;;;;;;;10.00;3.60;;;22.40;54.30;23.10;101476.00;;;;5089255;28;20173;-41
2022/06/12 07:57:42;;;;;;;8.37;3.80;;;22.40;54.40;23.10;101479.00;;;;5088658;28;20220;-42
2022/06/12 08:00:10;;;;;;;8.63;3.60;;;22.40;54.50;23.10;101475.00;;;;5088957;28;20279;-43
2022/06/12 08:02:36;;;;;;;6.63;3.30;;;22.40;54.40;23.10;101488.00;;;;5088588;28;20338;-42
2022/06/12 08:05:02;;;;;;;5.13;2.97;;;22.40;53.60;23.10;101494.00;;;;5088959;28;20200;-42
2022/06/12 08:07:28;;;;;;;6.73;3.00;;;22.40;53.90;23.10;101487.00;;;;5089006;28;20200;-43
2022/06/12 08:09:53;;;;;;;6.40;2.90;;;22.30;52.10;23.10;101487.00;;;;4899123;28;20172;-41
2022/06/12 08:12:19;;;;;;;7.17;3.13;;;22.30;51.70;23.10;101497.00;;;;5109120;28;20196;-42
2022/06/12 08:14:45;;;;;;;8.83;2.93;;;22.20;51.70;23.00;101490.00;;;;5109027;28;20187;-42
2022/06/12 08:17:11;;;;;;;13.67;3.10;;;22.30;52.50;23.00;101487.00;;;;5109196;28;20225;-41
2022/06/12 08:22:21;;;;;;;4.77;2.30;;;22.30;51.10;23.00;101489.00;;;;5109094;28;20219;-42
2022/06/12 08:24:46;;;;;;;5.50;2.50;;;22.20;50.80;23.00;101483.00;;;;5109105;28;20196;-41
2022/06/12 08:27:12;;;;;;;5.10;2.57;;;22.30;50.50;23.00;101494.00;;;;5109046;28;20176;-45
2022/06/12 08:29:39;;;;;;;4.63;2.40;;;22.30;49.90;23.00;101491.00;;;;5109120;28;20172;-45
2022/06/12 08:32:11;;;;;;;5.13;2.40;;;22.20;51.00;23.00;101491.00;;;;5108747;28;20796;-45
2022/06/12 08:34:58;;;;;;;4.40;2.20;;;22.20;52.40;23.00;101485.00;;;;5124731;28;20170;-46
2022/06/12 08:37:30;;;;;;;6.43;2.80;;;22.40;53.00;23.10;101494.00;;;;5124557;28;20302;-45
2022/06/12 08:39:57;;;;;;;6.20;2.70;;;22.40;53.90;23.20;101493.00;;;;5111568;28;20222;-45
2022/06/12 08:42:29;;;;;;;5.13;2.50;;;22.50;55.80;23.20;101494.00;;;;5110222;28;20200;-45
2022/06/12 08:45:10;;;;;;;4.70;2.20;;;22.50;54.80;23.30;101486.00;;;;5124781;28;20229;-45
2022/06/12 08:48:05;;;;;;;6.83;2.57;;;22.50;55.70;23.30;101485.00;;;;5124675;28;20175;-45
2022/06/12 08:50:36;;;;;;;4.63;2.53;;;22.50;55.40;23.30;101480.00;;;;5119352;28;20169;-45
2022/06/12 08:53:26;;;;;;;8.93;2.73;;;22.60;55.40;23.40;101486.00;;;;5070634;28;20204;-46
2022/06/12 08:56:32;;;;;;;5.67;2.17;;;22.60;55.50;23.40;101471.00;;;;5088493;28;20521;-45
2022/06/12 08:59:06;;;;;;;5.70;2.50;;;22.60;55.90;23.40;101470.00;;;;5084288;28;20184;-45
2022/06/12 09:01:31;;;;;;;4.13;2.20;;;22.60;56.20;23.40;101475.00;;;;5071492;28;20242;-45
2022/06/12 09:03:57;;;;;;;5.13;2.40;;;22.60;56.40;23.50;101468.00;;;;5089198;28;20238;-45
2022/06/12 09:06:37;;;;;;;6.57;2.40;;;22.70;56.80;23.50;101463.00;;;;5087461;28;20219;-44
2022/06/12 09:09:14;;;;;;;3.63;2.20;;;22.70;56.80;23.50;101463.00;;;;5072432;28;20283;-45
2022/06/12 09:12:09;;;;;;;6.03;2.53;;;22.70;56.80;23.60;101453.00;;;;5071930;28;20209;-45
2022/06/12 09:15:18;;;;;;;5.97;2.00;;;22.70;56.90;23.60;101462.00;;;;5080505;28;20181;-45
2022/06/12 09:18:10;;;;;;;4.73;2.30;;;22.70;57.10;23.60;101448.00;;;;5088453;28;20534;-44
2022/06/12 09:21:04;;;;;;;4.07;2.20;;;22.70;57.30;23.60;101445.00;;;;5087319;28;20169;-45
2022/06/12 09:23:36;;;;;;;4.60;2.10;;;22.70;57.50;23.60;101444.00;;;;5088211;28;20205;-44
2022/06/12 09:26:26;;;;;;;4.90;2.20;;;22.80;57.60;23.60;101446.00;;;;5087670;28;20173;-44
2022/06/12 09:29:21;;;;;;;4.63;2.00;;;22.80;57.70;23.70;101429.00;;;;5087553;28;20671;-45
2022/06/12 09:32:15;;;;;;;3.80;2.10;;;22.80;58.00;23.70;101440.00;;;;5073830;28;20211;-44
2022/06/12 09:35:13;;;;;;;2.03;1.90;;;22.80;58.30;23.70;101436.00;;;;5092212;28;20353;-46
2022/06/12 09:41:02;;;;;;;2.40;2.00;;;22.80;58.40;23.70;101435.00;;;;5091764;28;20176;-45
2022/06/12 09:44:00;;;;;;;3.13;1.97;;;22.80;58.40;23.70;101432.00;;;;5091780;28;20442;-45
2022/06/12 09:47:03;;;;;;;3.37;1.60;;;22.80;58.50;23.70;101426.00;;;;5091079;28;20572;-45
2022/06/12 09:49:39;;;;;;;3.23;1.73;;;22.80;58.80;23.70;101410.00;;;;5090733;28;20199;-45
2022/06/12 09:52:29;;;;;;;3.07;1.57;;;22.90;59.00;23.70;101416.00;;;;5090597;28;20393;-47
2022/06/12 09:55:00;;;;;;;3.53;1.90;;;22.80;59.00;23.70;101416.00;;;;5092068;28;20545;-44
2022/06/12 09:58:18;;;;;;;4.60;2.00;;;22.90;59.10;23.70;101425.00;;;;5073409;28;20168;-45
2022/06/12 10:00:58;;;;;;;2.77;1.90;;;22.90;59.10;23.70;101407.00;;;;5056820;28;20264;-45
2022/06/12 10:03:54;;;;;;;3.60;1.97;;;22.90;59.20;23.70;101413.00;;;;5076358;28;20192;-46
2022/06/12 10:07:02;;;;;;;2.20;1.60;;;22.90;59.30;23.80;101428.00;;;;5098391;28;20216;-44
2022/06/12 10:09:40;;;;;;;2.87;1.80;;;23.00;59.60;23.80;101404.00;;;;5094904;28;20825;-45
2022/06/12 10:12:10;;;;;;;1.83;1.60;;;23.00;59.60;23.80;101424.00;;;;5074645;28;20195;-44
2022/06/12 10:14:58;;;;;;;2.80;1.80;;;23.00;59.70;23.80;101416.00;;;;5073732;28;20689;-46
2022/06/12 10:17:46;;;;;;;2.73;1.90;;;23.00;59.80;23.80;101414.00;;;;5089982;28;20227;-45
2022/06/12 10:20:17;;;;;;;2.67;1.70;;;23.00;59.80;23.90;101414.00;;;;5074169;28;20163;-45
2022/06/12 10:22:45;;;;;;;2.37;1.80;;;23.00;59.80;23.90;101414.00;;;;5090818;28;20372;-44
2022/06/12 10:25:34;;;;;;;3.37;1.80;;;23.00;60.00;23.90;101406.00;;;;5090914;28;20264;-45
2022/06/12 10:28:04;;;;;;;2.07;1.50;;;23.00;60.20;23.90;101417.00;;;;5089519;28;20168;-45
2022/06/12 10:30:42;;;;;;;2.13;1.57;;;23.10;60.40;23.90;101421.00;;;;5073262;28;20544;-45
2022/06/12 10:33:26;;;;;;;2.17;1.60;;;23.10;60.50;23.90;101417.00;;;;5091101;28;20201;-45
2022/06/12 10:35:55;;;;;;;1.40;1.30;;;23.10;60.70;24.00;101420.00;;;;5091215;28;20641;-45
2022/06/12 10:38:24;;;;;;;4.90;1.77;;;23.20;60.80;24.00;101403.00;;;;5090613;28;20177;-44
2022/06/12 10:40:54;;;;;;;3.93;1.67;;;23.20;60.70;24.00;101396.00;;;;5091354;28;20310;-43
2022/06/12 10:43:45;;;;;;;2.10;1.67;;;23.20;60.70;24.00;101398.00;;;;5090742;28;20662;-44
2022/06/12 10:46:31;;;;;;;1.60;1.50;;;23.20;60.80;24.00;101397.00;;;;5090862;28;20177;-44
2022/06/12 10:49:03;;;;;;;2.73;1.60;;;23.20;60.80;24.10;101395.00;;;;5094353;28;20161;-45
2022/06/12 10:51:35;;;;;;;1.77;1.43;;;23.20;60.90;24.10;101396.00;;;;5095407;28;20166;-46
2022/06/12 10:54:18;;;;;;;1.90;1.67;;;23.20;60.80;24.10;101392.00;;;;5090510;28;20180;-47
2022/06/12 10:57:02;;;;;;;2.93;1.93;;;23.30;61.00;24.10;101395.00;;;;5089613;28;20183;-46
2022/06/12 10:59:58;;;;;;;1.93;1.80;;;23.30;60.80;24.10;101381.00;;;;5073296;28;20403;-46
2022/06/12 11:02:54;;;;;;;1.83;1.60;;;23.30;61.10;24.10;101379.00;;;;5075255;28;20197;-47
2022/06/12 11:05:58;;;;;;;2.57;1.80;;;23.40;61.30;24.20;101383.00;;;;5090627;28;20177;-45
2022/06/12 11:08:54;;;;;;;2.50;1.70;;;23.40;61.50;24.20;101381.00;;;;5088951;28;20177;-46
2022/06/12 11:11:58;;;;;;;3.47;1.60;;;23.40;61.40;24.20;101375.00;;;;5089168;28;20168;-44
2022/06/12 11:15:19;;;;;;;2.00;1.60;;;23.40;61.60;24.20;101366.00;;;;5088998;28;20202;-45
2022/06/12 11:18:49;;;;;;;1.97;1.50;;;23.40;61.30;24.20;101358.00;;;;5089187;28;20185;-46
2022/06/12 11:22:06;;;;;;;1.73;1.50;;;23.50;61.80;24.30;101367.00;;;;5071556;28;20261;-45
2022/06/12 11:24:56;;;;;;;3.03;1.47;;;23.50;61.70;24.30;101370.00;;;;5086113;28;20244;-45
2022/06/12 11:27:37;;;;;;;1.87;1.60;;;23.60;61.90;24.30;101372.00;;;;5089992;28;20169;-45
2022/06/12 11:30:14;;;;;;;2.07;1.83;;;23.60;61.80;24.40;101358.00;;;;5090571;28;20291;-45
2022/06/12 11:32:58;;;;;;;2.07;1.70;;;23.60;62.00;24.40;101371.00;;;;5088873;28;20196;-45
2022/06/12 11:36:00;;;;;;;1.80;1.50;;;23.60;61.80;24.40;101368.00;;;;5089798;28;20172;-44
2022/06/12 11:39:03;;;;;;;2.67;1.60;;;23.60;61.80;24.40;101363.00;;;;5090314;28;20165;-45
2022/06/12 11:42:30;;;;;;;2.10;1.60;;;23.60;61.70;24.50;101370.00;;;;5090588;28;20169;-46